sensor_id;sensor_type;location;lat;lon;timestamp;P1;durP1;ratioP1;P2;durP2;ratioP2
1811;SDS011;904;47.814;11.134;2023-08-30T00:01:45;2.20;;;1.20;;
1811;SDS011;904;47.814;11.134;2023-08-30T00:04:12;2.20;;;1.00;;
1811;SDS011;904;47.814;11.134;2023-08-30T00:06:39;2.27;;;0.93;;
1811;SDS011;904;47.814;11.134;2023-08-30T00:09:06;2.20;;;1.20;;
1811;SDS011;904;47.814;11.134;2023-08-30T00:11:33;3.07;;;1.13;;
1811;SDS011;904;47.814;11.134;2023-08-30T00:14:03;2.20;;;1.20;;
1811;SDS011;904;47.814;11.134;2023-08-30T00:16:33;2.30;;;1.10;;
1811;SDS011;904;47.814;11.134;2023-08-30T00:19:00;2.80;;;1.43;;
1811;SDS011;904;47.814;11.134;2023-08-30T00:21:27;2.40;;;0.83;;
1811;SDS011;904;47.814;11.134;2023-08-30T00:23:54;1.97;;;0.93;;
1811;SDS011;904;47.814;11.134;2023-08-30T00:26:21;2.10;;;0.97;;
1811;SDS011;904;47.814;11.134;2023-08-30T00:28:48;2.53;;;1.20;;
1811;SDS011;904;47.814;11.134;2023-08-30T00:31:15;2.00;;;1.00;;
1811;SDS011;904;47.814;11.134;2023-08-30T00:33:43;4.00;;;1.10;;
1811;SDS011;904;47.814;11.134;2023-08-30T00:36:10;2.67;;;1.13;;
1811;SDS011;904;47.814;11.134;2023-08-30T00:38:37;2.20;;;0.97;;
1811;SDS011;904;47.814;11.134;2023-08-30T00:41:04;2.83;;;1.40;;
1811;SDS011;904;47.814;11.134;2023-08-30T00:43:31;2.20;;;1.00;;
1811;SDS011;904;47.814;11.134;2023-08-30T00:45:58;3.03;;;1.13;;
1811;SDS011;904;47.814;11.134;2023-08-30T00:48:25;2.40;;;1.00;;
1811;SDS011;904;47.814;11.134;2023-08-30T00:50:55;2.70;;;1.07;;
1811;SDS011;904;47.814;11.134;2023-08-30T00:53:22;2.73;;;1.37;;
1811;SDS011;904;47.814;11.134;2023-08-30T00:55:49;3.60;;;1.30;;
1811;SDS011;904;47.814;11.134;2023-08-30T00:58:16;2.13;;;0.87;;
1811;SDS011;904;47.814;11.134;2023-08-30T01:00:43;2.67;;;1.67;;
1811;SDS011;904;47.814;11.134;2023-08-30T01:03:12;4.70;;;2.87;;
1811;SDS011;904;47.814;11.134;2023-08-30T01:05:39;5.77;;;2.17;;
1811;SDS011;904;47.814;11.134;2023-08-30T01:08:07;3.83;;;2.10;;
1811;SDS011;904;47.814;11.134;2023-08-30T01:10:39;4.00;;;1.90;;
1811;SDS011;904;47.814;11.134;2023-08-30T01:13:14;4.20;;;2.40;;
1811;SDS011;904;47.814;11.134;2023-08-30T01:15:46;3.30;;;1.43;;
1811;SDS011;904;47.814;11.134;2023-08-30T01:18:14;3.90;;;2.13;;
1811;SDS011;904;47.814;11.134;2023-08-30T01:20:45;4.30;;;2.40;;
1811;SDS011;904;47.814;11.134;2023-08-30T01:23:17;3.83;;;1.27;;
1811;SDS011;904;47.814;11.134;2023-08-30T01:25:54;2.30;;;0.93;;
1811;SDS011;904;47.814;11.134;2023-08-30T01:28:28;3.90;;;1.30;;
1811;SDS011;904;47.814;11.134;2023-08-30T01:30:57;2.27;;;0.83;;
1811;SDS011;904;47.814;11.134;2023-08-30T01:33:25;2.27;;;1.10;;
1811;SDS011;904;47.814;11.134;2023-08-30T01:35:54;1.90;;;0.90;;
1811;SDS011;904;47.814;11.134;2023-08-30T01:38:26;4.63;;;1.13;;
1811;SDS011;904;47.814;11.134;2023-08-30T01:40:54;2.13;;;1.00;;
1811;SDS011;904;47.814;11.134;2023-08-30T01:43:24;2.60;;;1.17;;
1811;SDS011;904;47.814;11.134;2023-08-30T01:45:55;2.00;;;1.10;;
1811;SDS011;904;47.814;11.134;2023-08-30T01:48:23;2.10;;;0.90;;
1811;SDS011;904;47.814;11.134;2023-08-30T01:50:51;2.50;;;1.20;;
1811;SDS011;904;47.814;11.134;2023-08-30T01:53:19;5.00;;;1.00;;
1811;SDS011;904;47.814;11.134;2023-08-30T01:55:48;3.13;;;1.00;;
1811;SDS011;904;47.814;11.134;2023-08-30T01:58:15;2.10;;;0.90;;
1811;SDS011;904;47.814;11.134;2023-08-30T02:00:42;2.20;;;1.10;;
1811;SDS011;904;47.814;11.134;2023-08-30T02:03:10;2.80;;;1.40;;
1811;SDS011;904;47.814;11.134;2023-08-30T02:05:40;3.10;;;1.20;;
1811;SDS011;904;47.814;11.134;2023-08-30T02:08:16;2.40;;;1.10;;
1811;SDS011;904;47.814;11.134;2023-08-30T02:10:45;2.43;;;1.10;;
1811;SDS011;904;47.814;11.134;2023-08-30T02:13:18;2.87;;;0.93;;
1811;SDS011;904;47.814;11.134;2023-08-30T02:15:51;4.00;;;1.50;;
1811;SDS011;904;47.814;11.134;2023-08-30T02:18:22;2.73;;;1.60;;
1811;SDS011;904;47.814;11.134;2023-08-30T02:20:50;2.57;;;1.40;;
1811;SDS011;904;47.814;11.134;2023-08-30T02:23:17;2.50;;;1.50;;
1811;SDS011;904;47.814;11.134;2023-08-30T02:25:44;2.30;;;1.30;;
1811;SDS011;904;47.814;11.134;2023-08-30T02:28:11;3.00;;;1.30;;
1811;SDS011;904;47.814;11.134;2023-08-30T02:30:38;3.80;;;1.37;;
1811;SDS011;904;47.814;11.134;2023-08-30T02:33:05;2.60;;;1.20;;
1811;SDS011;904;47.814;11.134;2023-08-30T02:35:38;3.20;;;1.83;;
1811;SDS011;904;47.814;11.134;2023-08-30T02:38:05;3.17;;;1.33;;
1811;SDS011;904;47.814;11.134;2023-08-30T02:40:32;3.90;;;1.40;;
1811;SDS011;904;47.814;11.134;2023-08-30T02:42:59;4.57;;;1.60;;
1811;SDS011;904;47.814;11.134;2023-08-30T02:45:26;2.30;;;1.20;;
1811;SDS011;904;47.814;11.134;2023-08-30T02:47:55;2.90;;;1.50;;
1811;SDS011;904;47.814;11.134;2023-08-30T02:50:22;2.97;;;1.43;;
1811;SDS011;904;47.814;11.134;2023-08-30T02:52:50;3.63;;;1.50;;
1811;SDS011;904;47.814;11.134;2023-08-30T02:55:18;6.43;;;2.03;;
1811;SDS011;904;47.814;11.134;2023-08-30T02:57:45;3.97;;;2.07;;
1811;SDS011;904;47.814;11.134;2023-08-30T03:00:12;3.57;;;1.80;;
1811;SDS011;904;47.814;11.134;2023-08-30T03:02:41;4.50;;;2.50;;
1811;SDS011;904;47.814;11.134;2023-08-30T03:05:08;5.77;;;2.73;;
1811;SDS011;904;47.814;11.134;2023-08-30T03:07:37;4.50;;;2.03;;
1811;SDS011;904;47.814;11.134;2023-08-30T03:10:05;3.60;;;1.90;;
1811;SDS011;904;47.814;11.134;2023-08-30T03:12:34;3.93;;;1.90;;
1811;SDS011;904;47.814;11.134;2023-08-30T03:15:01;3.27;;;1.80;;
1811;SDS011;904;47.814;11.134;2023-08-30T03:17:29;2.53;;;1.30;;
1811;SDS011;904;47.814;11.134;2023-08-30T03:19:56;3.60;;;1.47;;
1811;SDS011;904;47.814;11.134;2023-08-30T03:22:23;2.30;;;1.17;;
1811;SDS011;904;47.814;11.134;2023-08-30T03:24:50;2.40;;;1.10;;
1811;SDS011;904;47.814;11.134;2023-08-30T03:27:18;2.90;;;1.70;;
1811;SDS011;904;47.814;11.134;2023-08-30T03:29:47;3.00;;;1.50;;
1811;SDS011;904;47.814;11.134;2023-08-30T03:32:16;3.73;;;3.27;;
1811;SDS011;904;47.814;11.134;2023-08-30T03:34:44;7.80;;;3.77;;
1811;SDS011;904;47.814;11.134;2023-08-30T03:37:11;4.17;;;3.37;;
1811;SDS011;904;47.814;11.134;2023-08-30T03:39:38;3.80;;;2.80;;
1811;SDS011;904;47.814;11.134;2023-08-30T03:42:05;4.70;;;3.00;;
1811;SDS011;904;47.814;11.134;2023-08-30T03:44:34;3.77;;;2.80;;
1811;SDS011;904;47.814;11.134;2023-08-30T03:47:01;3.67;;;2.50;;
1811;SDS011;904;47.814;11.134;2023-08-30T03:49:28;2.80;;;2.03;;
1811;SDS011;904;47.814;11.134;2023-08-30T03:51:55;2.70;;;1.60;;
1811;SDS011;904;47.814;11.134;2023-08-30T03:54:22;2.57;;;1.33;;
1811;SDS011;904;47.814;11.134;2023-08-30T03:56:49;2.40;;;1.73;;
1811;SDS011;904;47.814;11.134;2023-08-30T03:59:16;2.80;;;1.57;;
1811;SDS011;904;47.814;11.134;2023-08-30T04:01:45;2.90;;;1.63;;
1811;SDS011;904;47.814;11.134;2023-08-30T04:04:12;3.10;;;1.73;;
1811;SDS011;904;47.814;11.134;2023-08-30T04:06:39;4.03;;;2.33;;
1811;SDS011;904;47.814;11.134;2023-08-30T04:09:06;3.40;;;2.47;;
1811;SDS011;904;47.814;11.134;2023-08-30T04:11:35;3.60;;;2.77;;
1811;SDS011;904;47.814;11.134;2023-08-30T04:14:05;3.73;;;1.87;;
1811;SDS011;904;47.814;11.134;2023-08-30T04:16:34;4.60;;;2.40;;
1811;SDS011;904;47.814;11.134;2023-08-30T04:19:02;4.00;;;2.13;;
1811;SDS011;904;47.814;11.134;2023-08-30T04:21:29;3.03;;;2.40;;
1811;SDS011;904;47.814;11.134;2023-08-30T04:23:56;3.03;;;1.70;;
1811;SDS011;904;47.814;11.134;2023-08-30T04:26:23;3.73;;;2.30;;
1811;SDS011;904;47.814;11.134;2023-08-30T04:28:50;3.73;;;2.60;;
1811;SDS011;904;47.814;11.134;2023-08-30T04:31:17;4.03;;;2.80;;
1811;SDS011;904;47.814;11.134;2023-08-30T04:33:44;4.20;;;2.60;;
1811;SDS011;904;47.814;11.134;2023-08-30T04:36:13;3.57;;;2.60;;
1811;SDS011;904;47.814;11.134;2023-08-30T04:38:39;4.03;;;3.20;;
1811;SDS011;904;47.814;11.134;2023-08-30T04:41:06;6.07;;;3.27;;
1811;SDS011;904;47.814;11.134;2023-08-30T04:43:33;3.43;;;2.60;;
1811;SDS011;904;47.814;11.134;2023-08-30T04:46:00;4.60;;;2.37;;
1811;SDS011;904;47.814;11.134;2023-08-30T04:48:27;5.30;;;2.33;;
1811;SDS011;904;47.814;11.134;2023-08-30T04:50:58;7.70;;;3.10;;
1811;SDS011;904;47.814;11.134;2023-08-30T04:53:27;4.37;;;2.90;;
1811;SDS011;904;47.814;11.134;2023-08-30T04:55:54;5.23;;;2.40;;
1811;SDS011;904;47.814;11.134;2023-08-30T04:58:21;4.30;;;2.60;;
1811;SDS011;904;47.814;11.134;2023-08-30T05:00:48;4.10;;;2.13;;
1811;SDS011;904;47.814;11.134;2023-08-30T05:03:21;6.53;;;2.17;;
1811;SDS011;904;47.814;11.134;2023-08-30T05:05:48;4.33;;;2.13;;
1811;SDS011;904;47.814;11.134;2023-08-30T05:08:15;4.53;;;2.40;;
1811;SDS011;904;47.814;11.134;2023-08-30T05:10:44;4.10;;;2.10;;
1811;SDS011;904;47.814;11.134;2023-08-30T05:13:11;3.20;;;2.03;;
1811;SDS011;904;47.814;11.134;2023-08-30T05:15:40;4.10;;;2.03;;
1811;SDS011;904;47.814;11.134;2023-08-30T05:18:07;3.20;;;1.70;;
1811;SDS011;904;47.814;11.134;2023-08-30T05:20:34;8.87;;;2.03;;
1811;SDS011;904;47.814;11.134;2023-08-30T05:23:01;2.87;;;1.50;;
1811;SDS011;904;47.814;11.134;2023-08-30T05:25:29;2.57;;;1.60;;
1811;SDS011;904;47.814;11.134;2023-08-30T05:27:57;5.20;;;1.83;;
1811;SDS011;904;47.814;11.134;2023-08-30T05:30:24;3.87;;;1.93;;
1811;SDS011;904;47.814;11.134;2023-08-30T05:32:51;3.00;;;2.20;;
1811;SDS011;904;47.814;11.134;2023-08-30T05:35:18;4.13;;;1.50;;
1811;SDS011;904;47.814;11.134;2023-08-30T05:37:45;3.10;;;1.90;;
1811;SDS011;904;47.814;11.134;2023-08-30T05:40:13;4.40;;;2.00;;
1811;SDS011;904;47.814;11.134;2023-08-30T05:42:42;2.80;;;1.57;;
1811;SDS011;904;47.814;11.134;2023-08-30T05:45:11;3.70;;;1.80;;
1811;SDS011;904;47.814;11.134;2023-08-30T05:47:38;2.50;;;1.60;;
1811;SDS011;904;47.814;11.134;2023-08-30T05:50:06;3.20;;;1.73;;
1811;SDS011;904;47.814;11.134;2023-08-30T05:52:33;4.17;;;2.20;;
1811;SDS011;904;47.814;11.134;2023-08-30T05:55:00;3.13;;;1.87;;
1811;SDS011;904;47.814;11.134;2023-08-30T05:57:27;3.27;;;1.97;;
1811;SDS011;904;47.814;11.134;2023-08-30T05:59:58;6.87;;;2.07;;
1811;SDS011;904;47.814;11.134;2023-08-30T06:02:27;3.70;;;2.77;;
1811;SDS011;904;47.814;11.134;2023-08-30T06:04:54;3.37;;;2.17;;
1811;SDS011;904;47.814;11.134;2023-08-30T06:07:21;5.67;;;3.17;;
1811;SDS011;904;47.814;11.134;2023-08-30T06:09:48;3.70;;;2.93;;
1811;SDS011;904;47.814;11.134;2023-08-30T06:12:15;2.97;;;1.80;;
1811;SDS011;904;47.814;11.134;2023-08-30T06:14:42;5.20;;;2.27;;
1811;SDS011;904;47.814;11.134;2023-08-30T06:17:15;3.13;;;1.83;;
1811;SDS011;904;47.814;11.134;2023-08-30T06:19:44;4.97;;;2.40;;
1811;SDS011;904;47.814;11.134;2023-08-30T06:22:11;3.43;;;1.70;;
1811;SDS011;904;47.814;11.134;2023-08-30T06:24:38;3.33;;;1.93;;
1811;SDS011;904;47.814;11.134;2023-08-30T06:27:05;2.50;;;1.50;;
1811;SDS011;904;47.814;11.134;2023-08-30T06:29:32;3.00;;;1.80;;
1811;SDS011;904;47.814;11.134;2023-08-30T06:31:59;2.83;;;1.83;;
1811;SDS011;904;47.814;11.134;2023-08-30T06:34:26;2.90;;;2.00;;
1811;SDS011;904;47.814;11.134;2023-08-30T06:36:54;5.63;;;1.90;;
1811;SDS011;904;47.814;11.134;2023-08-30T06:39:21;3.47;;;1.80;;
1811;SDS011;904;47.814;11.134;2023-08-30T06:41:48;3.00;;;1.83;;
1811;SDS011;904;47.814;11.134;2023-08-30T06:44:15;3.70;;;2.17;;
1811;SDS011;904;47.814;11.134;2023-08-30T06:46:43;5.17;;;2.33;;
1811;SDS011;904;47.814;11.134;2023-08-30T06:49:10;3.97;;;2.23;;
1811;SDS011;904;47.814;11.134;2023-08-30T06:51:37;2.93;;;2.07;;
1811;SDS011;904;47.814;11.134;2023-08-30T06:54:05;3.00;;;1.87;;
1811;SDS011;904;47.814;11.134;2023-08-30T06:56:32;2.80;;;2.03;;
1811;SDS011;904;47.814;11.134;2023-08-30T06:58:59;5.87;;;2.47;;
1811;SDS011;904;47.814;11.134;2023-08-30T07:01:27;3.30;;;1.90;;
1811;SDS011;904;47.814;11.134;2023-08-30T07:03:54;3.33;;;2.00;;
1811;SDS011;904;47.814;11.134;2023-08-30T07:06:21;3.27;;;1.80;;
1811;SDS011;904;47.814;11.134;2023-08-30T07:08:49;2.83;;;2.10;;
1811;SDS011;904;47.814;11.134;2023-08-30T07:11:17;3.53;;;2.07;;
1811;SDS011;904;47.814;11.134;2023-08-30T07:13:44;3.07;;;1.57;;
1811;SDS011;904;47.814;11.134;2023-08-30T07:16:11;3.73;;;2.00;;
1811;SDS011;904;47.814;11.134;2023-08-30T07:18:38;4.13;;;2.40;;
1811;SDS011;904;47.814;11.134;2023-08-30T07:21:05;3.13;;;1.90;;
1811;SDS011;904;47.814;11.134;2023-08-30T07:23:32;3.50;;;2.30;;
1811;SDS011;904;47.814;11.134;2023-08-30T07:26:01;3.70;;;2.33;;
1811;SDS011;904;47.814;11.134;2023-08-30T07:28:30;2.70;;;1.63;;
1811;SDS011;904;47.814;11.134;2023-08-30T07:31:02;2.70;;;1.90;;
1811;SDS011;904;47.814;11.134;2023-08-30T07:33:29;3.43;;;1.97;;
1811;SDS011;904;47.814;11.134;2023-08-30T07:35:56;4.13;;;2.40;;
1811;SDS011;904;47.814;11.134;2023-08-30T07:38:23;3.07;;;1.67;;
1811;SDS011;904;47.814;11.134;2023-08-30T07:40:53;3.00;;;1.97;;
1811;SDS011;904;47.814;11.134;2023-08-30T07:43:20;4.00;;;2.07;;
1811;SDS011;904;47.814;11.134;2023-08-30T07:45:48;2.47;;;1.20;;
1811;SDS011;904;47.814;11.134;2023-08-30T07:48:15;2.93;;;1.70;;
1811;SDS011;904;47.814;11.134;2023-08-30T07:50:42;3.90;;;1.60;;
1811;SDS011;904;47.814;11.134;2023-08-30T07:53:09;2.87;;;1.77;;
1811;SDS011;904;47.814;11.134;2023-08-30T07:55:36;2.27;;;1.40;;
1811;SDS011;904;47.814;11.134;2023-08-30T07:58:03;4.50;;;2.03;;
1811;SDS011;904;47.814;11.134;2023-08-30T08:00:30;3.23;;;1.27;;
1811;SDS011;904;47.814;11.134;2023-08-30T08:02:59;2.77;;;1.93;;
1811;SDS011;904;47.814;11.134;2023-08-30T08:05:26;2.60;;;1.50;;
1811;SDS011;904;47.814;11.134;2023-08-30T08:07:53;3.17;;;1.60;;
1811;SDS011;904;47.814;11.134;2023-08-30T08:10:20;3.43;;;1.57;;
1811;SDS011;904;47.814;11.134;2023-08-30T08:12:47;2.77;;;1.70;;
1811;SDS011;904;47.814;11.134;2023-08-30T08:15:14;3.00;;;1.50;;
1811;SDS011;904;47.814;11.134;2023-08-30T08:17:41;2.87;;;1.47;;
1811;SDS011;904;47.814;11.134;2023-08-30T08:20:10;3.10;;;1.60;;
1811;SDS011;904;47.814;11.134;2023-08-30T08:22:39;3.17;;;1.40;;
1811;SDS011;904;47.814;11.134;2023-08-30T08:25:06;3.40;;;1.53;;
1811;SDS011;904;47.814;11.134;2023-08-30T08:27:35;3.77;;;1.43;;
1811;SDS011;904;47.814;11.134;2023-08-30T08:30:02;4.47;;;1.30;;
1811;SDS011;904;47.814;11.134;2023-08-30T08:32:30;2.90;;;1.30;;
1811;SDS011;904;47.814;11.134;2023-08-30T08:34:58;3.70;;;1.40;;
1811;SDS011;904;47.814;11.134;2023-08-30T08:37:27;2.90;;;1.30;;
1811;SDS011;904;47.814;11.134;2023-08-30T08:39:53;2.93;;;1.40;;
1811;SDS011;904;47.814;11.134;2023-08-30T08:42:26;2.87;;;1.57;;
1811;SDS011;904;47.814;11.134;2023-08-30T08:44:54;2.63;;;1.10;;
1811;SDS011;904;47.814;11.134;2023-08-30T08:47:23;6.40;;;1.50;;
1811;SDS011;904;47.814;11.134;2023-08-30T08:49:50;3.10;;;1.70;;
1811;SDS011;904;47.814;11.134;2023-08-30T08:52:18;2.47;;;1.23;;
1811;SDS011;904;47.814;11.134;2023-08-30T08:54:46;3.60;;;1.70;;
1811;SDS011;904;47.814;11.134;2023-08-30T08:57:14;2.53;;;1.00;;
1811;SDS011;904;47.814;11.134;2023-08-30T08:59:40;2.60;;;1.50;;
1811;SDS011;904;47.814;11.134;2023-08-30T09:02:08;4.90;;;1.60;;
1811;SDS011;904;47.814;11.134;2023-08-30T09:04:38;3.17;;;1.33;;
1811;SDS011;904;47.814;11.134;2023-08-30T09:07:12;2.60;;;1.40;;
1811;SDS011;904;47.814;11.134;2023-08-30T09:09:39;3.60;;;1.50;;
1811;SDS011;904;47.814;11.134;2023-08-30T09:12:08;2.90;;;1.50;;
1811;SDS011;904;47.814;11.134;2023-08-30T09:14:35;3.37;;;1.80;;
1811;SDS011;904;47.814;11.134;2023-08-30T09:17:02;2.90;;;1.20;;
1811;SDS011;904;47.814;11.134;2023-08-30T09:19:30;4.37;;;1.43;;
1811;SDS011;904;47.814;11.134;2023-08-30T09:21:57;2.73;;;1.70;;
1811;SDS011;904;47.814;11.134;2023-08-30T09:24:25;2.70;;;1.30;;
1811;SDS011;904;47.814;11.134;2023-08-30T09:27:03;3.40;;;1.30;;
1811;SDS011;904;47.814;11.134;2023-08-30T09:29:34;5.10;;;1.80;;
1811;SDS011;904;47.814;11.134;2023-08-30T09:32:03;2.83;;;1.57;;
1811;SDS011;904;47.814;11.134;2023-08-30T09:34:30;3.00;;;1.40;;
1811;SDS011;904;47.814;11.134;2023-08-30T09:36:57;4.07;;;1.80;;
1811;SDS011;904;47.814;11.134;2023-08-30T09:39:27;3.20;;;1.70;;
1811;SDS011;904;47.814;11.134;2023-08-30T09:41:55;2.73;;;1.30;;
1811;SDS011;904;47.814;11.134;2023-08-30T09:44:29;2.73;;;1.10;;
1811;SDS011;904;47.814;11.134;2023-08-30T09:46:56;3.90;;;1.40;;
1811;SDS011;904;47.814;11.134;2023-08-30T09:49:24;3.07;;;1.70;;
1811;SDS011;904;47.814;11.134;2023-08-30T09:52:04;2.63;;;1.20;;
1811;SDS011;904;47.814;11.134;2023-08-30T09:54:34;5.73;;;1.67;;
1811;SDS011;904;47.814;11.134;2023-08-30T09:57:03;2.90;;;1.10;;
1811;SDS011;904;47.814;11.134;2023-08-30T09:59:36;3.33;;;1.50;;
1811;SDS011;904;47.814;11.134;2023-08-30T10:02:07;2.30;;;1.23;;
1811;SDS011;904;47.814;11.134;2023-08-30T10:04:39;2.37;;;1.20;;
1811;SDS011;904;47.814;11.134;2023-08-30T10:07:07;3.50;;;1.40;;
1811;SDS011;904;47.814;11.134;2023-08-30T10:09:35;2.90;;;1.10;;
1811;SDS011;904;47.814;11.134;2023-08-30T10:12:05;2.57;;;0.80;;
1811;SDS011;904;47.814;11.134;2023-08-30T10:14:39;3.30;;;1.27;;
1811;SDS011;904;47.814;11.134;2023-08-30T10:17:07;3.33;;;1.40;;
1811;SDS011;904;47.814;11.134;2023-08-30T10:19:38;4.17;;;1.37;;
1811;SDS011;904;47.814;11.134;2023-08-30T10:22:06;2.30;;;1.20;;
1811;SDS011;904;47.814;11.134;2023-08-30T10:24:44;6.70;;;1.30;;
1811;SDS011;904;47.814;11.134;2023-08-30T10:27:13;4.53;;;1.30;;
1811;SDS011;904;47.814;11.134;2023-08-30T10:29:43;2.43;;;1.13;;
1811;SDS011;904;47.814;11.134;2023-08-30T10:32:13;2.20;;;1.00;;
1811;SDS011;904;47.814;11.134;2023-08-30T10:34:46;3.10;;;1.73;;
1811;SDS011;904;47.814;11.134;2023-08-30T10:37:15;2.93;;;1.10;;
1811;SDS011;904;47.814;11.134;2023-08-30T10:39:42;2.60;;;1.23;;
1811;SDS011;904;47.814;11.134;2023-08-30T10:42:14;3.13;;;1.50;;
1811;SDS011;904;47.814;11.134;2023-08-30T10:44:50;2.30;;;1.00;;
1811;SDS011;904;47.814;11.134;2023-08-30T10:47:21;2.83;;;1.10;;
1811;SDS011;904;47.814;11.134;2023-08-30T10:49:53;2.53;;;1.23;;
1811;SDS011;904;47.814;11.134;2023-08-30T10:52:20;2.50;;;1.00;;
1811;SDS011;904;47.814;11.134;2023-08-30T10:54:47;3.50;;;1.07;;
1811;SDS011;904;47.814;11.134;2023-08-30T10:57:15;2.23;;;1.00;;
1811;SDS011;904;47.814;11.134;2023-08-30T11:02:33;3.00;;;0.97;;
1811;SDS011;904;47.814;11.134;2023-08-30T11:05:01;3.23;;;1.37;;
1811;SDS011;904;47.814;11.134;2023-08-30T11:07:29;2.57;;;1.00;;
1811;SDS011;904;47.814;11.134;2023-08-30T11:09:56;3.10;;;1.20;;
1811;SDS011;904;47.814;11.134;2023-08-30T11:12:23;4.40;;;1.30;;
1811;SDS011;904;47.814;11.134;2023-08-30T11:14:51;3.70;;;1.20;;
1811;SDS011;904;47.814;11.134;2023-08-30T11:17:20;3.37;;;1.07;;
1811;SDS011;904;47.814;11.134;2023-08-30T11:19:49;2.47;;;1.27;;
1811;SDS011;904;47.814;11.134;2023-08-30T11:22:17;4.10;;;1.17;;
1811;SDS011;904;47.814;11.134;2023-08-30T11:24:46;2.20;;;1.30;;
1811;SDS011;904;47.814;11.134;2023-08-30T11:27:15;3.33;;;1.33;;
1811;SDS011;904;47.814;11.134;2023-08-30T11:29:43;3.07;;;1.47;;
1811;SDS011;904;47.814;11.134;2023-08-30T11:32:10;5.00;;;0.87;;
1811;SDS011;904;47.814;11.134;2023-08-30T11:34:39;2.23;;;1.03;;
1811;SDS011;904;47.814;11.134;2023-08-30T11:37:06;3.10;;;1.20;;
1811;SDS011;904;47.814;11.134;2023-08-30T11:39:34;2.77;;;1.10;;
1811;SDS011;904;47.814;11.134;2023-08-30T11:42:03;2.43;;;1.10;;
1811;SDS011;904;47.814;11.134;2023-08-30T11:44:31;2.77;;;0.97;;
1811;SDS011;904;47.814;11.134;2023-08-30T11:46:59;2.80;;;1.40;;
1811;SDS011;904;47.814;11.134;2023-08-30T11:49:28;2.87;;;1.10;;
1811;SDS011;904;47.814;11.134;2023-08-30T11:51:56;2.30;;;1.00;;
1811;SDS011;904;47.814;11.134;2023-08-30T11:54:25;3.60;;;1.60;;
1811;SDS011;904;47.814;11.134;2023-08-30T11:56:52;3.17;;;2.03;;
1811;SDS011;904;47.814;11.134;2023-08-30T11:59:20;2.50;;;1.50;;
1811;SDS011;904;47.814;11.134;2023-08-30T12:01:47;2.60;;;1.30;;
1811;SDS011;904;47.814;11.134;2023-08-30T12:04:14;5.27;;;1.40;;
1811;SDS011;904;47.814;11.134;2023-08-30T12:06:43;2.40;;;1.10;;
1811;SDS011;904;47.814;11.134;2023-08-30T12:09:20;3.03;;;1.10;;
1811;SDS011;904;47.814;11.134;2023-08-30T12:11:49;2.07;;;0.93;;
1811;SDS011;904;47.814;11.134;2023-08-30T12:14:16;2.20;;;1.07;;
1811;SDS011;904;47.814;11.134;2023-08-30T12:16:43;2.17;;;1.07;;
1811;SDS011;904;47.814;11.134;2023-08-30T12:19:12;2.17;;;1.20;;
1811;SDS011;904;47.814;11.134;2023-08-30T12:21:41;4.30;;;1.10;;
1811;SDS011;904;47.814;11.134;2023-08-30T12:24:08;2.83;;;1.20;;
1811;SDS011;904;47.814;11.134;2023-08-30T12:26:37;2.50;;;1.30;;
1811;SDS011;904;47.814;11.134;2023-08-30T12:29:04;2.30;;;1.17;;
1811;SDS011;904;47.814;11.134;2023-08-30T12:31:31;2.60;;;1.00;;
1811;SDS011;904;47.814;11.134;2023-08-30T12:33:59;3.70;;;1.23;;
1811;SDS011;904;47.814;11.134;2023-08-30T12:36:26;2.10;;;0.93;;
1811;SDS011;904;47.814;11.134;2023-08-30T12:38:53;3.30;;;1.00;;
1811;SDS011;904;47.814;11.134;2023-08-30T12:41:20;2.37;;;1.13;;
1811;SDS011;904;47.814;11.134;2023-08-30T12:43:54;2.77;;;1.20;;
1811;SDS011;904;47.814;11.134;2023-08-30T12:46:21;2.93;;;1.27;;
1811;SDS011;904;47.814;11.134;2023-08-30T12:48:48;4.03;;;1.20;;
1811;SDS011;904;47.814;11.134;2023-08-30T12:51:15;2.07;;;1.00;;
1811;SDS011;904;47.814;11.134;2023-08-30T12:53:42;2.97;;;1.13;;
1811;SDS011;904;47.814;11.134;2023-08-30T12:56:10;2.87;;;1.27;;
1811;SDS011;904;47.814;11.134;2023-08-30T12:58:36;2.20;;;0.90;;
1811;SDS011;904;47.814;11.134;2023-08-30T13:01:05;2.83;;;1.20;;
1811;SDS011;904;47.814;11.134;2023-08-30T13:03:32;2.50;;;1.10;;
1811;SDS011;904;47.814;11.134;2023-08-30T13:05:59;2.23;;;0.83;;
1811;SDS011;904;47.814;11.134;2023-08-30T13:08:26;2.37;;;0.90;;
1811;SDS011;904;47.814;11.134;2023-08-30T13:10:53;5.73;;;0.90;;
1811;SDS011;904;47.814;11.134;2023-08-30T13:13:20;2.53;;;1.10;;
1811;SDS011;904;47.814;11.134;2023-08-30T13:15:47;3.37;;;1.33;;
1811;SDS011;904;47.814;11.134;2023-08-30T13:18:16;3.07;;;1.07;;
1811;SDS011;904;47.814;11.134;2023-08-30T13:20:43;4.00;;;1.10;;
1811;SDS011;904;47.814;11.134;2023-08-30T13:23:10;3.40;;;1.10;;
1811;SDS011;904;47.814;11.134;2023-08-30T13:25:40;2.47;;;1.07;;
1811;SDS011;904;47.814;11.134;2023-08-30T13:28:07;2.33;;;1.00;;
1811;SDS011;904;47.814;11.134;2023-08-30T13:30:34;2.27;;;0.93;;
1811;SDS011;904;47.814;11.134;2023-08-30T13:33:02;2.70;;;1.00;;
1811;SDS011;904;47.814;11.134;2023-08-30T13:35:31;2.17;;;0.90;;
1811;SDS011;904;47.814;11.134;2023-08-30T13:37:58;2.60;;;1.00;;
1811;SDS011;904;47.814;11.134;2023-08-30T13:40:24;2.50;;;1.00;;
1811;SDS011;904;47.814;11.134;2023-08-30T13:42:51;2.20;;;1.10;;
1811;SDS011;904;47.814;11.134;2023-08-30T13:45:18;2.70;;;0.90;;
1811;SDS011;904;47.814;11.134;2023-08-30T13:47:45;2.57;;;0.80;;
1811;SDS011;904;47.814;11.134;2023-08-30T13:50:13;2.57;;;1.40;;
1811;SDS011;904;47.814;11.134;2023-08-30T13:52:41;2.63;;;1.10;;
1811;SDS011;904;47.814;11.134;2023-08-30T13:55:08;2.20;;;0.87;;
1811;SDS011;904;47.814;11.134;2023-08-30T13:57:35;2.57;;;1.33;;
1811;SDS011;904;47.814;11.134;2023-08-30T14:00:02;2.80;;;1.03;;
1811;SDS011;904;47.814;11.134;2023-08-30T14:02:35;2.10;;;1.10;;
1811;SDS011;904;47.814;11.134;2023-08-30T14:05:02;2.83;;;1.20;;
1811;SDS011;904;47.814;11.134;2023-08-30T14:07:30;2.40;;;1.13;;
1811;SDS011;904;47.814;11.134;2023-08-30T14:09:58;4.00;;;1.00;;
1811;SDS011;904;47.814;11.134;2023-08-30T14:12:26;2.63;;;0.90;;
1811;SDS011;904;47.814;11.134;2023-08-30T14:14:53;2.50;;;1.00;;
1811;SDS011;904;47.814;11.134;2023-08-30T14:17:20;3.03;;;1.20;;
1811;SDS011;904;47.814;11.134;2023-08-30T14:19:47;5.93;;;1.20;;
1811;SDS011;904;47.814;11.134;2023-08-30T14:22:14;3.47;;;1.10;;
1811;SDS011;904;47.814;11.134;2023-08-30T14:24:41;2.63;;;1.03;;
1811;SDS011;904;47.814;11.134;2023-08-30T14:27:09;3.80;;;1.80;;
1811;SDS011;904;47.814;11.134;2023-08-30T14:29:36;2.30;;;1.00;;
1811;SDS011;904;47.814;11.134;2023-08-30T14:32:03;3.37;;;1.07;;
1811;SDS011;904;47.814;11.134;2023-08-30T14:34:30;2.30;;;1.00;;
1811;SDS011;904;47.814;11.134;2023-08-30T14:36:57;2.50;;;1.33;;
1811;SDS011;904;47.814;11.134;2023-08-30T14:39:24;9.27;;;2.17;;
1811;SDS011;904;47.814;11.134;2023-08-30T14:41:51;3.63;;;2.40;;
1811;SDS011;904;47.814;11.134;2023-08-30T14:44:20;6.17;;;3.90;;
1811;SDS011;904;47.814;11.134;2023-08-30T14:46:47;4.50;;;1.63;;
1811;SDS011;904;47.814;11.134;2023-08-30T14:49:14;2.60;;;1.17;;
1811;SDS011;904;47.814;11.134;2023-08-30T14:51:41;2.70;;;1.10;;
1811;SDS011;904;47.814;11.134;2023-08-30T14:54:11;2.83;;;1.30;;
1811;SDS011;904;47.814;11.134;2023-08-30T14:56:38;3.93;;;1.20;;
1811;SDS011;904;47.814;11.134;2023-08-30T14:59:05;5.13;;;3.03;;
1811;SDS011;904;47.814;11.134;2023-08-30T15:01:33;4.23;;;1.30;;
1811;SDS011;904;47.814;11.134;2023-08-30T15:04:00;2.53;;;1.30;;
1811;SDS011;904;47.814;11.134;2023-08-30T15:06:27;2.23;;;1.00;;
1811;SDS011;904;47.814;11.134;2023-08-30T15:08:54;2.37;;;1.13;;
1811;SDS011;904;47.814;11.134;2023-08-30T15:11:21;2.53;;;1.17;;
1811;SDS011;904;47.814;11.134;2023-08-30T15:13:49;4.83;;;1.30;;
1811;SDS011;904;47.814;11.134;2023-08-30T15:16:15;3.60;;;1.80;;
1811;SDS011;904;47.814;11.134;2023-08-30T15:18:44;2.43;;;1.13;;
1811;SDS011;904;47.814;11.134;2023-08-30T15:21:12;2.50;;;1.00;;
1811;SDS011;904;47.814;11.134;2023-08-30T15:23:40;2.77;;;1.10;;